Time;durP1;ratioP1;P1;durP2;ratioP2;P2;SDS_P1;SDS_P2;PMS_P1;PMS_P2;Temp;Humidity;BMP_temperature;BMP_pressure;BME280_temperature;BME280_humidity;BME280_pressure;Samples;Min_cycle;Max_cycle;Signal;HPM_P1;HPM_P2
2021/07/05 00:00:23;;;;;;;29.38;22.98;;;;;;;;;;5074324;28;20049;-65
2021/07/05 00:03:09;;;;;;;30.60;22.35;;;;;;;;;;5074950;28;20506;-66
2021/07/05 00:05:54;;;;;;;30.48;22.70;;;;;;;;;;5054265;28;20098;-65
2021/07/05 00:08:39;;;;;;;24.83;20.45;;;;;;;;;;5054178;28;20040;-65
2021/07/05 00:11:25;;;;;;;26.13;20.73;;;;;;;;;;5054237;28;20059;-65
2021/07/05 00:14:10;;;;;;;19.48;17.38;;;;;;;;;;5069933;28;20036;-65
2021/07/05 00:16:56;;;;;;;20.60;16.40;;;;;;;;;;5054122;28;20052;-65
2021/07/05 00:19:41;;;;;;;18.10;15.02;;;;;;;;;;5053923;28;20053;-65
2021/07/05 00:22:27;;;;;;;16.83;14.95;;;;;;;;;;5054146;28;20045;-65
2021/07/05 00:25:12;;;;;;;17.70;13.98;;;;;;;;;;5064875;28;20040;-65
2021/07/05 00:27:58;;;;;;;19.75;15.02;;;;;;;;;;5073836;28;20049;-65
2021/07/05 00:30:45;;;;;;;16.75;14.13;;;;;;;;;;5073632;28;20109;-65
2021/07/05 00:33:30;;;;;;;15.63;14.02;;;;;;;;;;5087173;28;20118;-65
2021/07/05 00:36:15;;;;;;;16.10;14.45;;;;;;;;;;5072005;28;20059;-65
2021/07/05 00:39:00;;;;;;;16.42;14.60;;;;;;;;;;5073047;28;20052;-65
2021/07/05 00:41:46;;;;;;;16.27;13.43;;;;;;;;;;5073552;28;20125;-65
2021/07/05 00:44:32;;;;;;;15.75;14.02;;;;;;;;;;5071873;28;20044;-65
2021/07/05 00:47:17;;;;;;;17.85;14.65;;;;;;;;;;5073692;28;20044;-65
2021/07/05 00:50:04;;;;;;;26.92;17.20;;;;;;;;;;5073035;28;20051;-65
2021/07/05 00:52:51;;;;;;;20.00;16.23;;;;;;;;;;5073374;28;20498;-65
2021/07/05 00:55:36;;;;;;;20.73;14.68;;;;;;;;;;5071769;28;20098;-65
2021/07/05 00:58:22;;;;;;;19.70;14.75;;;;;;;;;;5073321;28;20044;-65
2021/07/05 01:01:07;;;;;;;19.63;15.07;;;;;;;;;;5072961;28;20049;-64
2021/07/05 01:03:52;;;;;;;15.27;13.60;;;;;;;;;;5073304;28;20048;-65
2021/07/05 01:06:38;;;;;;;18.20;14.93;;;;;;;;;;5071490;28;20521;-65
2021/07/05 01:09:23;;;;;;;17.30;14.30;;;;;;;;;;5072789;28;20047;-65
2021/07/05 01:12:09;;;;;;;17.77;15.20;;;;;;;;;;5072946;28;20555;-65
2021/07/05 01:14:54;;;;;;;20.60;15.30;;;;;;;;;;5073032;28;20052;-65
2021/07/05 01:17:40;;;;;;;19.52;15.38;;;;;;;;;;5071177;28;20045;-65
2021/07/05 01:20:27;;;;;;;20.73;14.93;;;;;;;;;;5072827;28;20052;-65
2021/07/05 01:23:12;;;;;;;17.63;13.55;;;;;;;;;;5057900;28;20049;-65
2021/07/05 01:25:59;;;;;;;16.80;12.15;;;;;;;;;;5071062;28;20053;-64
2021/07/05 01:28:44;;;;;;;17.08;13.65;;;;;;;;;;5071120;28;20114;-64
2021/07/05 01:31:30;;;;;;;17.55;12.43;;;;;;;;;;5072695;28;20063;-64
2021/07/05 01:34:15;;;;;;;16.25;12.63;;;;;;;;;;5072583;28;20041;-65
2021/07/05 01:37:01;;;;;;;17.38;12.38;;;;;;;;;;5071000;28;20131;-65
2021/07/05 01:39:46;;;;;;;19.42;12.77;;;;;;;;;;5072289;28;20055;-65
2021/07/05 01:42:31;;;;;;;22.40;13.18;;;;;;;;;;5072408;28;20041;-65
2021/07/05 01:45:18;;;;;;;32.92;17.52;;;;;;;;;;5072415;28;20483;-64
2021/07/05 01:48:03;;;;;;;26.23;15.93;;;;;;;;;;5070532;28;20049;-65
2021/07/05 01:50:48;;;;;;;25.63;17.25;;;;;;;;;;5071015;28;20045;-65
2021/07/05 01:53:34;;;;;;;32.33;18.27;;;;;;;;;;5072135;28;20514;-64
2021/07/05 01:56:19;;;;;;;30.20;17.15;;;;;;;;;;5072256;28;20046;-65
2021/07/05 01:59:05;;;;;;;37.08;19.02;;;;;;;;;;5070467;28;20040;-64
2021/07/05 02:01:50;;;;;;;32.55;18.83;;;;;;;;;;5072056;28;20123;-64
2021/07/05 02:04:38;;;;;;;26.48;17.55;;;;;;;;;;5072202;28;20045;-64
2021/07/05 02:07:24;;;;;;;30.40;17.05;;;;;;;;;;5070333;28;20133;-64
2021/07/05 02:10:10;;;;;;;32.03;17.70;;;;;;;;;;5071893;28;20056;-64
2021/07/05 02:12:55;;;;;;;35.15;19.00;;;;;;;;;;5072171;28;20410;-64
2021/07/05 02:15:40;;;;;;;40.70;18.88;;;;;;;;;;5071982;28;20058;-64
2021/07/05 02:18:26;;;;;;;40.83;20.33;;;;;;;;;;5055612;28;20041;-64
2021/07/05 02:21:11;;;;;;;66.10;25.70;;;;;;;;;;5071634;28;20137;-64
2021/07/05 02:23:57;;;;;;;69.95;28.23;;;;;;;;;;5070811;28;20098;-64
2021/07/05 02:26:43;;;;;;;48.45;24.90;;;;;;;;;;5085053;28;20072;-65
2021/07/05 02:29:28;;;;;;;69.38;27.77;;;;;;;;;;5070080;28;20125;-64
2021/07/05 02:32:13;;;;;;;70.93;28.40;;;;;;;;;;5071729;28;20105;-64
2021/07/05 02:34:59;;;;;;;68.47;28.45;;;;;;;;;;5071844;28;20128;-64
2021/07/05 02:37:44;;;;;;;68.97;29.95;;;;;;;;;;5071673;28;20502;-64
2021/07/05 02:40:33;;;;;;;78.15;30.27;;;;;;;;;;5069768;28;20075;-64
2021/07/05 02:43:19;;;;;;;75.28;31.60;;;;;;;;;;5071670;28;20079;-65
2021/07/05 02:46:04;;;;;;;68.55;30.20;;;;;;;;;;5071820;28;20044;-64
2021/07/05 02:48:49;;;;;;;58.58;29.05;;;;;;;;;;5069965;28;20083;-64
2021/07/05 02:51:35;;;;;;;56.22;27.83;;;;;;;;;;5101458;22;20508;-63
2021/07/05 02:54:20;;;;;;;72.38;33.88;;;;;;;;;;5091911;28;20118;-63
2021/07/05 02:57:06;;;;;;;62.70;30.67;;;;;;;;;;5085520;28;20072;-63
2021/07/05 02:59:51;;;;;;;64.10;32.90;;;;;;;;;;5075907;28;20405;-63
2021/07/05 03:02:37;;;;;;;62.17;32.80;;;;;;;;;;5073960;28;20052;-63
2021/07/05 03:05:23;;;;;;;55.47;33.10;;;;;;;;;;5075515;28;20410;-63
2021/07/05 03:08:08;;;;;;;60.42;33.50;;;;;;;;;;5075442;28;20530;-63
2021/07/05 03:10:54;;;;;;;72.45;37.92;;;;;;;;;;5073205;28;20567;-63
2021/07/05 03:13:39;;;;;;;82.88;39.03;;;;;;;;;;5075427;28;20402;-63
2021/07/05 03:16:24;;;;;;;86.43;39.92;;;;;;;;;;5075241;28;20045;-63
2021/07/05 03:19:11;;;;;;;76.05;39.60;;;;;;;;;;5074308;28;20127;-63
2021/07/05 03:21:56;;;;;;;87.38;42.30;;;;;;;;;;5074100;28;20055;-63
2021/07/05 03:24:42;;;;;;;102.53;46.15;;;;;;;;;;5075144;28;20051;-63
2021/07/05 03:27:28;;;;;;;98.15;42.83;;;;;;;;;;5075247;28;20051;-63
2021/07/05 03:30:14;;;;;;;80.25;42.45;;;;;;;;;;5073454;28;20506;-63
2021/07/05 03:33:00;;;;;;;88.32;43.38;;;;;;;;;;5075312;28;20496;-63
2021/07/05 03:35:46;;;;;;;78.72;39.92;;;;;;;;;;5074771;28;20040;-63
2021/07/05 03:38:31;;;;;;;71.75;39.40;;;;;;;;;;5075035;28;20047;-63
2021/07/05 03:41:16;;;;;;;63.90;37.80;;;;;;;;;;5073310;28;20051;-63
2021/07/05 03:44:02;;;;;;;69.20;37.70;;;;;;;;;;5074765;28;20123;-63
2021/07/05 03:46:47;;;;;;;78.25;39.58;;;;;;;;;;5074849;28;20536;-63
2021/07/05 03:49:32;;;;;;;63.80;37.03;;;;;;;;;;5074350;28;20051;-63
2021/07/05 03:52:18;;;;;;;65.53;37.03;;;;;;;;;;5073720;28;20048;-63
2021/07/05 03:55:06;;;;;;;58.03;36.35;;;;;;;;;;5074633;28;20122;-63
2021/07/05 03:57:52;;;;;;;59.30;35.75;;;;;;;;;;5074623;28;20059;-63
2021/07/05 04:00:38;;;;;;;64.53;38.17;;;;;;;;;;5074232;28;20208;-63
2021/07/05 04:03:23;;;;;;;56.47;37.67;;;;;;;;;;5073285;28;20041;-63
2021/07/05 04:06:08;;;;;;;65.43;37.97;;;;;;;;;;5074530;28;20113;-63
2021/07/05 04:08:56;;;;;;;64.78;40.40;;;;;;;;;;5074644;28;20065;-64
2021/07/05 04:11:41;;;;;;;62.33;40.15;;;;;;;;;;5073144;28;20048;-63
2021/07/05 04:14:27;;;;;;;60.10;39.90;;;;;;;;;;5073729;28;20074;-63
2021/07/05 04:17:12;;;;;;;63.13;39.50;;;;;;;;;;5074344;28;20044;-62
2021/07/05 04:19:58;;;;;;;59.58;40.30;;;;;;;;;;5073737;28;20053;-62
2021/07/05 04:22:43;;;;;;;57.05;38.00;;;;;;;;;;5073156;28;20040;-63
2021/07/05 04:25:29;;;;;;;58.35;37.40;;;;;;;;;;5074308;28;20040;-63
2021/07/05 04:28:16;;;;;;;57.13;37.05;;;;;;;;;;5073870;28;20520;-63
2021/07/05 04:31:02;;;;;;;48.97;33.85;;;;;;;;;;5073765;28;20044;-62
2021/07/05 04:33:48;;;;;;;46.90;35.42;;;;;;;;;;5073117;28;20122;-63
2021/07/05 04:36:33;;;;;;;44.78;32.72;;;;;;;;;;5073823;28;20117;-63
2021/07/05 04:39:18;;;;;;;48.65;34.60;;;;;;;;;;5058753;28;20054;-63
2021/07/05 04:42:04;;;;;;;48.92;34.80;;;;;;;;;;5073620;28;20128;-63
2021/07/05 04:44:50;;;;;;;41.80;31.20;;;;;;;;;;5072657;28;20044;-63
2021/07/05 04:47:36;;;;;;;44.70;33.80;;;;;;;;;;5073638;28;20417;-63
2021/07/05 04:50:22;;;;;;;51.15;34.75;;;;;;;;;;5073080;28;20086;-63
2021/07/05 04:53:07;;;;;;;46.88;34.00;;;;;;;;;;5072829;28;20052;-63
2021/07/05 04:55:53;;;;;;;45.47;32.58;;;;;;;;;;5073567;28;20052;-63
2021/07/05 04:58:38;;;;;;;41.13;31.13;;;;;;;;;;5073338;28;20167;-63
2021/07/05 05:01:24;;;;;;;43.08;31.75;;;;;;;;;;5072894;28;20122;-63
2021/07/05 05:04:09;;;;;;;38.90;29.42;;;;;;;;;;5071412;28;20069;-63
2021/07/05 05:06:55;;;;;;;36.80;28.40;;;;;;;;;;5073037;28;20055;-63
2021/07/05 05:09:40;;;;;;;35.75;26.15;;;;;;;;;;5073055;28;20075;-63
2021/07/05 05:12:25;;;;;;;28.70;23.10;;;;;;;;;;5073004;28;20508;-63
2021/07/05 05:15:11;;;;;;;27.88;23.73;;;;;;;;;;5072082;28;20075;-63
2021/07/05 05:17:56;;;;;;;28.83;22.83;;;;;;;;;;5073154;28;20055;-63
2021/07/05 05:20:42;;;;;;;24.70;21.30;;;;;;;;;;5072578;28;20445;-63
2021/07/05 05:23:27;;;;;;;26.27;21.83;;;;;;;;;;5072538;28;20118;-63
2021/07/05 05:26:13;;;;;;;23.52;20.92;;;;;;;;;;5071936;28;20091;-63
2021/07/05 05:28:58;;;;;;;24.20;21.60;;;;;;;;;;5072743;28;20487;-64
2021/07/05 05:31:44;;;;;;;25.65;22.50;;;;;;;;;;5073786;28;20071;-64
2021/07/05 05:34:29;;;;;;;24.48;21.70;;;;;;;;;;5073786;28;20060;-63
2021/07/05 05:37:15;;;;;;;26.00;23.13;;;;;;;;;;5074455;28;20051;-64
2021/07/05 05:40:00;;;;;;;26.55;23.33;;;;;;;;;;5073327;28;20055;-64
2021/07/05 05:42:45;;;;;;;27.77;22.98;;;;;;;;;;5074344;28;20486;-63
2021/07/05 05:45:31;;;;;;;26.88;22.60;;;;;;;;;;5072417;28;20036;-64
2021/07/05 05:48:16;;;;;;;28.13;23.17;;;;;;;;;;5072291;28;20052;-64
2021/07/05 05:51:02;;;;;;;26.20;23.40;;;;;;;;;;5072910;28;20043;-64
2021/07/05 05:53:47;;;;;;;28.30;23.83;;;;;;;;;;5073435;28;20097;-64
2021/07/05 05:56:33;;;;;;;28.25;23.65;;;;;;;;;;5071741;28;20048;-64
2021/07/05 05:59:19;;;;;;;28.30;24.33;;;;;;;;;;5072081;28;20513;-64
2021/07/05 06:02:04;;;;;;;30.75;24.58;;;;;;;;;;5071931;28;20040;-64
2021/07/05 06:04:49;;;;;;;27.20;23.42;;;;;;;;;;5072115;28;20044;-63
2021/07/05 06:07:34;;;;;;;27.63;24.73;;;;;;;;;;5070861;28;20498;-63
2021/07/05 06:10:21;;;;;;;27.92;24.63;;;;;;;;;;5071821;28;20534;-63
2021/07/05 06:13:07;;;;;;;30.23;26.17;;;;;;;;;;5072099;28;20049;-64
2021/07/05 06:15:52;;;;;;;30.15;26.35;;;;;;;;;;5056197;28;20079;-63
2021/07/05 06:18:37;;;;;;;28.40;25.00;;;;;;;;;;5071985;28;20503;-63
2021/07/05 06:21:25;;;;;;;28.65;24.67;;;;;;;;;;5071641;28;20048;-63
2021/07/05 06:24:11;;;;;;;29.88;25.48;;;;;;;;;;5071893;28;20052;-64
2021/07/05 06:26:56;;;;;;;23.88;19.75;;;;;;;;;;5071178;28;20411;-65
2021/07/05 06:29:42;;;;;;;31.17;22.77;;;;;;;;;;5062517;28;20490;-64
2021/07/05 06:32:27;;;;;;;24.98;17.45;;;;;;;;;;5070867;28;20135;-64
2021/07/05 06:35:13;;;;;;;20.55;14.73;;;;;;;;;;5072047;28;20055;-63
2021/07/05 06:37:58;;;;;;;14.32;11.23;;;;;;;;;;5074068;28;20047;-63
2021/07/05 06:40:43;;;;;;;17.92;10.95;;;;;;;;;;5073907;28;20509;-62
2021/07/05 06:43:29;;;;;;;8.45;6.80;;;;;;;;;;5075794;28;20052;-63
2021/07/05 06:46:16;;;;;;;8.98;7.15;;;;;;;;;;5073962;28;20051;-63
2021/07/05 06:49:01;;;;;;;11.13;7.50;;;;;;;;;;5075959;28;20059;-63
2021/07/05 06:51:47;;;;;;;10.20;7.05;;;;;;;;;;5074771;28;20040;-62
2021/07/05 06:54:33;;;;;;;9.98;7.80;;;;;;;;;;5075868;28;20047;-65
2021/07/05 06:57:32;;;;;;;9.32;6.18;;;;;;;;;;5074894;28;20548;-63
2021/07/05 07:00:19;;;;;;;8.02;4.70;;;;;;;;;;5074263;28;20040;-63
2021/07/05 07:03:06;;;;;;;7.13;4.25;;;;;;;;;;5075774;28;20067;-65
2021/07/05 07:05:51;;;;;;;4.68;3.13;;;;;;;;;;5075066;28;20529;-64
2021/07/05 07:08:37;;;;;;;7.10;4.20;;;;;;;;;;5075622;28;20094;-64
2021/07/05 07:11:22;;;;;;;8.30;5.15;;;;;;;;;;5074231;28;20036;-64
2021/07/05 07:14:08;;;;;;;7.65;5.43;;;;;;;;;;5075500;28;20060;-64
2021/07/05 07:17:02;;;;;;;8.10;5.45;;;;;;;;;;5075899;28;20040;-64
2021/07/05 07:19:47;;;;;;;5.63;4.97;;;;;;;;;;5075060;28;20045;-64
2021/07/05 07:22:33;;;;;;;5.72;4.72;;;;;;;;;;5073816;28;20633;-64
2021/07/05 07:25:18;;;;;;;9.80;5.00;;;;;;;;;;5075719;28;20051;-64
2021/07/05 07:28:04;;;;;;;8.18;5.28;;;;;;;;;;5074941;28;20579;-64
2021/07/05 07:30:49;;;;;;;6.15;4.80;;;;;;;;;;5074039;28;20517;-63
2021/07/05 07:33:34;;;;;;;8.50;4.65;;;;;;;;;;5055097;28;20055;-63
2021/07/05 07:36:20;;;;;;;5.65;3.75;;;;;;;;;;5054947;28;20056;-63
2021/07/05 07:39:09;;;;;;;4.88;4.03;;;;;;;;;;5069002;28;20060;-63
2021/07/05 07:41:54;;;;;;;7.45;3.53;;;;;;;;;;5073781;28;20538;-63
2021/07/05 07:44:39;;;;;;;6.88;4.03;;;;;;;;;;5074079;28;20407;-63
2021/07/05 07:47:24;;;;;;;6.03;3.50;;;;;;;;;;5074609;28;20045;-63
2021/07/05 07:50:10;;;;;;;4.28;3.05;;;;;;;;;;5074235;28;20142;-64
2021/07/05 07:52:57;;;;;;;5.53;3.33;;;;;;;;;;5073750;28;20048;-64
2021/07/05 07:55:42;;;;;;;4.55;3.45;;;;;;;;;;5074509;28;20246;-63
2021/07/05 07:58:27;;;;;;;4.65;2.53;;;;;;;;;;5059605;28;20049;-63
2021/07/05 08:01:13;;;;;;;5.97;3.58;;;;;;;;;;5074044;28;20509;-63
2021/07/05 08:03:58;;;;;;;4.60;2.92;;;;;;;;;;5072975;28;20086;-63
2021/07/05 08:06:44;;;;;;;5.85;3.65;;;;;;;;;;5074525;28;20099;-64
2021/07/05 08:09:29;;;;;;;5.28;3.40;;;;;;;;;;5074242;28;20051;-64
2021/07/05 08:12:14;;;;;;;3.88;3.00;;;;;;;;;;5073459;28;20090;-64
2021/07/05 08:15:00;;;;;;;4.88;3.60;;;;;;;;;;5074379;28;20122;-64
2021/07/05 08:17:45;;;;;;;6.13;3.70;;;;;;;;;;5074366;28;20056;-64
2021/07/05 08:20:30;;;;;;;7.35;4.20;;;;;;;;;;5058712;28;20048;-64
2021/07/05 08:23:16;;;;;;;7.22;4.00;;;;;;;;;;5074005;28;20036;-64
2021/07/05 08:26:01;;;;;;;9.05;4.40;;;;;;;;;;5073945;28;20059;-64
2021/07/05 08:28:47;;;;;;;6.50;4.22;;;;;;;;;;5073981;28;20086;-64
2021/07/05 08:31:32;;;;;;;9.07;5.88;;;;;;;;;;5072960;28;20060;-64
2021/07/05 08:34:18;;;;;;;10.50;6.10;;;;;;;;;;5073939;28;20060;-65
2021/07/05 08:37:03;;;;;;;7.72;5.97;;;;;;;;;;5073180;28;20045;-65
2021/07/05 08:39:48;;;;;;;10.82;7.55;;;;;;;;;;5073664;28;20051;-65
2021/07/05 08:42:33;;;;;;;13.15;8.57;;;;;;;;;;5072865;28;20071;-64
2021/07/05 08:45:18;;;;;;;9.73;7.93;;;;;;;;;;5044612;28;20041;-64
2021/07/05 08:48:04;;;;;;;13.50;9.63;;;;;;;;;;5073599;28;20050;-64
2021/07/05 08:50:50;;;;;;;11.68;8.27;;;;;;;;;;5091569;22;20124;-65
2021/07/05 08:53:35;;;;;;;14.48;9.50;;;;;;;;;;5106817;28;20058;-64
2021/07/05 08:56:21;;;;;;;13.77;11.63;;;;;;;;;;5114107;28;20042;-64
2021/07/05 08:59:06;;;;;;;12.18;8.70;;;;;;;;;;5113366;28;20051;-64
2021/07/05 09:01:52;;;;;;;13.82;10.38;;;;;;;;;;5099359;28;20043;-64
2021/07/05 09:04:37;;;;;;;13.02;10.40;;;;;;;;;;5093462;28;20056;-64
2021/07/05 09:07:22;;;;;;;14.30;10.43;;;;;;;;;;5093647;28;20054;-64
2021/07/05 09:10:09;;;;;;;16.25;10.57;;;;;;;;;;5093196;28;20525;-65
2021/07/05 09:13:08;;;;;;;12.48;10.98;;;;;;;;;;5091621;28;20046;-64
2021/07/05 09:15:54;;;;;;;12.98;11.50;;;;;;;;;;5093409;28;20106;-65
2021/07/05 09:18:47;;;;;;;13.82;12.43;;;;;;;;;;5093276;28;20097;-64
2021/07/05 09:21:33;;;;;;;16.27;12.45;;;;;;;;;;5087587;28;20047;-64
2021/07/05 09:24:28;;;;;;;16.45;12.13;;;;;;;;;;5071899;28;20044;-64
2021/07/05 09:27:20;;;;;;;18.13;12.18;;;;;;;;;;5070695;28;20470;-64
2021/07/05 09:30:09;;;;;;;18.33;13.63;;;;;;;;;;5069401;28;20043;-65
2021/07/05 09:32:54;;;;;;;19.35;15.48;;;;;;;;;;5070845;28;20125;-65
2021/07/05 09:35:39;;;;;;;18.48;14.95;;;;;;;;;;5073738;28;20039;-65
2021/07/05 09:38:35;;;;;;;20.88;15.18;;;;;;;;;;5072680;28;20167;-64
2021/07/05 09:41:21;;;;;;;15.30;13.32;;;;;;;;;;5071357;28;20047;-65
2021/07/05 09:44:16;;;;;;;16.75;14.45;;;;;;;;;;5072572;28;20040;-66
2021/07/05 09:47:03;;;;;;;16.10;12.88;;;;;;;;;;5072468;28;20047;-65
2021/07/05 09:49:48;;;;;;;17.77;13.25;;;;;;;;;;5072229;28;20170;-64
2021/07/05 09:52:34;;;;;;;14.15;12.52;;;;;;;;;;5071382;28;20095;-65
2021/07/05 09:55:19;;;;;;;16.42;14.48;;;;;;;;;;5081142;28;20054;-65
2021/07/05 09:58:04;;;;;;;16.85;11.90;;;;;;;;;;5092671;28;20068;-65
2021/07/05 10:00:49;;;;;;;17.10;15.15;;;;;;;;;;5082810;28;20043;-66
2021/07/05 10:03:35;;;;;;;19.08;13.80;;;;;;;;;;5071965;28;20170;-65
2021/07/05 10:06:21;;;;;;;14.23;11.93;;;;;;;;;;5073733;28;20047;-65
2021/07/05 10:09:06;;;;;;;15.90;12.13;;;;;;;;;;5072332;28;20102;-65
2021/07/05 10:11:51;;;;;;;15.85;12.23;;;;;;;;;;5071219;28;20047;-65
2021/07/05 10:14:36;;;;;;;17.75;12.38;;;;;;;;;;5072253;28;20055;-65
2021/07/05 10:17:22;;;;;;;14.00;12.18;;;;;;;;;;5061766;28;20516;-65
2021/07/05 10:20:10;;;;;;;16.67;12.65;;;;;;;;;;5071836;28;20194;-65
2021/07/05 10:22:56;;;;;;;15.90;12.55;;;;;;;;;;5072104;28;20178;-65
2021/07/05 10:25:47;;;;;;;16.27;11.52;;;;;;;;;;5069022;28;20445;-64
2021/07/05 10:28:33;;;;;;;14.20;12.68;;;;;;;;;;5090333;28;20553;-65
2021/07/05 10:31:18;;;;;;;13.23;11.73;;;;;;;;;;5091817;28;20101;-66
2021/07/05 10:34:04;;;;;;;13.95;11.93;;;;;;;;;;5092083;28;20173;-66
2021/07/05 10:36:49;;;;;;;15.25;12.63;;;;;;;;;;5089492;28;20040;-65
2021/07/05 10:39:34;;;;;;;15.77;11.50;;;;;;;;;;5091140;28;20112;-66
2021/07/05 10:42:36;;;;;;;12.55;10.85;;;;;;;;;;5091830;28;20059;-65
2021/07/05 10:45:21;;;;;;;14.45;11.00;;;;;;;;;;5092073;28;20050;-65
2021/07/05 10:48:06;;;;;;;13.25;11.15;;;;;;;;;;5088689;28;20519;-65
2021/07/05 10:50:52;;;;;;;14.32;11.52;;;;;;;;;;5091353;28;20071;-65
2021/07/05 10:53:37;;;;;;;17.52;11.85;;;;;;;;;;5092020;28;20597;-65
2021/07/05 10:56:29;;;;;;;10.63;9.57;;;;;;;;;;5090380;28;20057;-65
2021/07/05 10:59:14;;;;;;;14.70;10.10;;;;;;;;;;5091594;28;20048;-65
2021/07/05 11:01:59;;;;;;;14.07;11.27;;;;;;;;;;5091436;28;20056;-65
2021/07/05 11:04:49;;;;;;;12.75;10.63;;;;;;;;;;5091683;28;20066;-65
2021/07/05 11:07:44;;;;;;;15.35;11.40;;;;;;;;;;5089301;28;20051;-65
2021/07/05 11:10:31;;;;;;;15.75;11.18;;;;;;;;;;5091351;28;20055;-65
2021/07/05 11:13:20;;;;;;;16.05;11.60;;;;;;;;;;5091814;28;20051;-65
2021/07/05 11:16:05;;;;;;;13.73;12.32;;;;;;;;;;5092142;28;20055;-66
2021/07/05 11:18:51;;;;;;;14.18;11.27;;;;;;;;;;5089885;28;20036;-65
2021/07/05 11:21:39;;;;;;;12.65;10.18;;;;;;;;;;5090058;28;20044;-65
2021/07/05 11:24:31;;;;;;;14.57;10.13;;;;;;;;;;5054985;28;20048;-65
2021/07/05 11:27:25;;;;;;;14.68;11.18;;;;;;;;;;5038935;28;20071;-65
2021/07/05 11:30:13;;;;;;;11.68;9.52;;;;;;;;;;5054696;28;20513;-65
2021/07/05 11:32:58;;;;;;;10.23;7.55;;;;;;;;;;5071062;28;20517;-65
2021/07/05 11:35:44;;;;;;;15.90;9.48;;;;;;;;;;5095485;28;20048;-65
2021/07/05 11:38:32;;;;;;;8.75;7.88;;;;;;;;;;5095130;28;20417;-65
2021/07/05 11:41:18;;;;;;;10.30;6.32;;;;;;;;;;5094872;28;20117;-65
2021/07/05 11:44:15;;;;;;;11.82;6.68;;;;;;;;;;5093267;28;20047;-65
2021/07/05 11:47:00;;;;;;;10.60;9.48;;;;;;;;;;5094967;28;20047;-65
2021/07/05 11:49:45;;;;;;;11.27;9.07;;;;;;;;;;5093656;28;20051;-66
2021/07/05 11:52:31;;;;;;;9.80;8.70;;;;;;;;;;5093766;28;20543;-66
2021/07/05 11:55:16;;;;;;;10.75;7.18;;;;;;;;;;5063875;28;20150;-65
2021/07/05 11:58:03;;;;;;;9.73;8.52;;;;;;;;;;5094810;28;20402;-65
2021/07/05 12:00:48;;;;;;;11.38;7.78;;;;;;;;;;5093371;28;20067;-65
2021/07/05 12:03:33;;;;;;;9.88;7.70;;;;;;;;;;5093301;28;20044;-65
2021/07/05 12:06:19;;;;;;;14.30;8.02;;;;;;;;;;5094625;28;20051;-65
2021/07/05 12:09:08;;;;;;;10.45;8.00;;;;;;;;;;5094539;28;20044;-65
2021/07/05 12:11:54;;;;;;;10.00;5.97;;;;;;;;;;5093689;28;20072;-64
2021/07/05 12:14:39;;;;;;;10.05;5.78;;;;;;;;;;5090527;28;20051;-65
2021/07/05 12:17:24;;;;;;;8.45;6.53;;;;;;;;;;5094468;28;20048;-65
2021/07/05 12:20:10;;;;;;;8.50;5.13;;;;;;;;;;5093436;28;20085;-65
2021/07/05 12:22:55;;;;;;;8.57;5.10;;;;;;;;;;5092481;28;20518;-65
2021/07/05 12:25:41;;;;;;;7.85;5.30;;;;;;;;;;5094351;28;20129;-65
2021/07/05 12:28:27;;;;;;;16.40;6.50;;;;;;;;;;5094047;28;20050;-65
2021/07/05 12:31:12;;;;;;;10.05;5.20;;;;;;;;;;5093887;28;20051;-65
2021/07/05 12:33:58;;;;;;;13.75;5.03;;;;;;;;;;5090726;28;20627;-65
2021/07/05 12:36:44;;;;;;;8.88;6.57;;;;;;;;;;5067517;28;20146;-65
2021/07/05 12:39:29;;;;;;;8.90;6.38;;;;;;;;;;5069071;28;20049;-65
2021/07/05 12:42:21;;;;;;;9.88;6.30;;;;;;;;;;5073399;28;20048;-65
2021/07/05 12:45:07;;;;;;;9.93;5.45;;;;;;;;;;5073401;28;20039;-65
2021/07/05 12:47:54;;;;;;;8.15;5.53;;;;;;;;;;5073558;28;20464;-67
2021/07/05 12:50:40;;;;;;;9.80;6.25;;;;;;;;;;5072904;28;20048;-67
2021/07/05 12:53:29;;;;;;;7.95;6.70;;;;;;;;;;5076945;28;20044;-65
2021/07/05 12:56:22;;;;;;;10.73;7.40;;;;;;;;;;5078661;28;20055;-65
2021/07/05 12:59:08;;;;;;;11.32;7.22;;;;;;;;;;5093664;28;20476;-65
2021/07/05 13:01:53;;;;;;;11.13;7.60;;;;;;;;;;5092557;28;20070;-65
2021/07/05 13:04:38;;;;;;;10.57;7.95;;;;;;;;;;5091129;28;20052;-64
2021/07/05 13:07:23;;;;;;;11.27;8.30;;;;;;;;;;5093410;28;20051;-65
2021/07/05 13:10:09;;;;;;;11.20;9.10;;;;;;;;;;5090514;28;20048;-65
2021/07/05 13:13:01;;;;;;;12.70;9.52;;;;;;;;;;5093400;28;20049;-65
2021/07/05 13:15:47;;;;;;;15.50;10.15;;;;;;;;;;5091484;28;20595;-65
2021/07/05 13:18:35;;;;;;;15.02;10.48;;;;;;;;;;5093032;28;20183;-65
2021/07/05 13:21:36;;;;;;;13.43;10.98;;;;;;;;;;5092607;28;20052;-65
2021/07/05 13:24:23;;;;;;;12.90;10.02;;;;;;;;;;5085358;28;20054;-65
2021/07/05 13:27:15;;;;;;;12.57;10.70;;;;;;;;;;5093097;28;20097;-65
2021/07/05 13:30:01;;;;;;;11.90;10.68;;;;;;;;;;5052450;28;20059;-65
2021/07/05 13:32:55;;;;;;;18.52;14.40;;;;;;;;;;5052745;28;20145;-65
2021/07/05 13:35:41;;;;;;;14.68;12.93;;;;;;;;;;5075608;28;20047;-63
2021/07/05 13:38:29;;;;;;;15.35;12.10;;;;;;;;;;5092349;28;20051;-63
2021/07/05 13:41:14;;;;;;;19.10;14.00;;;;;;;;;;5092270;28;20051;-63
2021/07/05 13:44:00;;;;;;;14.05;12.55;;;;;;;;;;5092341;28;20078;-63
2021/07/05 13:46:46;;;;;;;15.20;13.60;;;;;;;;;;5090448;28;20603;-63
2021/07/05 13:49:31;;;;;;;13.00;10.82;;;;;;;;;;5090635;28;20063;-63
2021/07/05 13:52:32;;;;;;;12.68;10.13;;;;;;;;;;5091720;28;20175;-63
2021/07/05 13:55:41;;;;;;;13.18;8.00;;;;;;;;;;5090897;28;20422;-63
2021/07/05 13:58:32;;;;;;;12.70;8.68;;;;;;;;;;5091377;28;20051;-63
2021/07/05 14:01:18;;;;;;;13.80;7.55;;;;;;;;;;5086652;28;20055;-63
2021/07/05 14:04:04;;;;;;;7.95;7.15;;;;;;;;;;5092384;28;20055;-63
2021/07/05 14:06:49;;;;;;;7.57;5.55;;;;;;;;;;5091078;28;20512;-63
2021/07/05 14:09:34;;;;;;;8.50;6.10;;;;;;;;;;5080186;28;20090;-63
2021/07/05 14:12:20;;;;;;;9.13;6.35;;;;;;;;;;5072037;28;20067;-63
2021/07/05 14:15:07;;;;;;;11.02;5.93;;;;;;;;;;5072098;28;20471;-63
2021/07/05 14:17:52;;;;;;;8.75;6.18;;;;;;;;;;5089901;28;20098;-64
2021/07/05 14:20:38;;;;;;;7.53;6.30;;;;;;;;;;5069337;28;20067;-63
2021/07/05 14:23:23;;;;;;;9.80;6.50;;;;;;;;;;5070468;28;20430;-64
2021/07/05 14:26:09;;;;;;;8.68;6.10;;;;;;;;;;5071872;28;20048;-64
2021/07/05 14:28:54;;;;;;;9.27;6.28;;;;;;;;;;5092229;28;20047;-64
2021/07/05 14:31:40;;;;;;;9.38;6.43;;;;;;;;;;5084228;28;20049;-64
2021/07/05 14:34:25;;;;;;;8.43;6.05;;;;;;;;;;5071920;28;20126;-63
2021/07/05 14:37:12;;;;;;;9.68;7.13;;;;;;;;;;5077790;28;20113;-63
2021/07/05 14:39:57;;;;;;;12.13;5.65;;;;;;;;;;5091229;28;20056;-64
2021/07/05 14:42:43;;;;;;;6.60;5.18;;;;;;;;;;5092025;28;20523;-64
2021/07/05 14:45:28;;;;;;;7.65;6.35;;;;;;;;;;5083665;28;20037;-64
2021/07/05 14:48:13;;;;;;;7.80;5.93;;;;;;;;;;5071707;28;20557;-64
2021/07/05 14:50:59;;;;;;;6.60;5.30;;;;;;;;;;5075584;28;20127;-63
2021/07/05 14:53:44;;;;;;;7.57;5.63;;;;;;;;;;5091920;28;20501;-63
2021/07/05 14:56:30;;;;;;;10.77;6.00;;;;;;;;;;5088266;28;20086;-63
2021/07/05 14:59:15;;;;;;;8.48;5.47;;;;;;;;;;5095831;28;20150;-63
2021/07/05 15:02:01;;;;;;;9.40;6.10;;;;;;;;;;5089722;28;20129;-63
2021/07/05 15:04:47;;;;;;;7.80;5.40;;;;;;;;;;5095774;28;20689;-63
2021/07/05 15:07:32;;;;;;;10.73;6.07;;;;;;;;;;5119145;22;20052;-66
2021/07/05 15:10:18;;;;;;;9.05;5.63;;;;;;;;;;5088800;28;20049;-66
2021/07/05 15:13:03;;;;;;;10.27;4.90;;;;;;;;;;5092976;28;20116;-66
2021/07/05 15:15:49;;;;;;;8.90;5.35;;;;;;;;;;5083417;28;20181;-66
2021/07/05 15:18:34;;;;;;;9.77;5.50;;;;;;;;;;5061908;28;20037;-65
2021/07/05 15:21:23;;;;;;;10.13;5.00;;;;;;;;;;5070331;28;20100;-66
2021/07/05 15:24:09;;;;;;;13.68;8.60;;;;;;;;;;5050694;28;20094;-66
2021/07/05 15:26:54;;;;;;;12.60;9.55;;;;;;;;;;5052740;28;20517;-65
2021/07/05 15:29:40;;;;;;;11.27;9.57;;;;;;;;;;5051298;28;20176;-66
2021/07/05 15:32:26;;;;;;;13.35;9.82;;;;;;;;;;5054112;28;20032;-65
2021/07/05 15:35:11;;;;;;;12.48;11.02;;;;;;;;;;5050931;28;20048;-65
2021/07/05 15:37:56;;;;;;;14.75;11.57;;;;;;;;;;5050226;28;20047;-66
2021/07/05 15:41:04;;;;;;;14.52;11.23;;;;;;;;;;5074453;28;20037;-66
2021/07/05 15:43:49;;;;;;;13.75;12.45;;;;;;;;;;5037282;28;20423;-65
2021/07/05 15:46:36;;;;;;;13.02;11.10;;;;;;;;;;5056834;28;20049;-66
2021/07/05 15:49:21;;;;;;;14.73;11.52;;;;;;;;;;5054294;28;20052;-65
2021/07/05 15:52:06;;;;;;;14.98;11.55;;;;;;;;;;5050953;28;20051;-66
2021/07/05 15:54:52;;;;;;;12.18;10.95;;;;;;;;;;5046157;28;20151;-66
2021/07/05 15:57:37;;;;;;;12.88;11.13;;;;;;;;;;5051696;28;20159;-66
2021/07/05 16:00:22;;;;;;;12.20;11.00;;;;;;;;;;5049581;28;20033;-65
2021/07/05 16:03:08;;;;;;;14.60;11.13;;;;;;;;;;5052674;28;20126;-66
2021/07/05 16:05:53;;;;;;;12.23;11.05;;;;;;;;;;5051795;28;20037;-66
2021/07/05 16:08:38;;;;;;;12.60;11.30;;;;;;;;;;5047426;28;20051;-65
2021/07/05 16:11:24;;;;;;;14.90;11.05;;;;;;;;;;5052017;28;20052;-65
2021/07/05 16:14:09;;;;;;;14.27;10.55;;;;;;;;;;5050635;28;20473;-66